sensor_id;sensor_type;location;lat;lon;timestamp;pressure;altitude;pressure_sealevel;temperature;humidity
76124;BME280;65173;48.066;20.976;2023-05-10T00:02:07;100824.97;;;8.72;68.88
76124;BME280;65173;48.066;20.976;2023-05-10T00:05:10;100826.50;;;8.59;69.23
76124;BME280;65173;48.066;20.976;2023-05-10T00:08:13;100822.03;;;8.55;69.24
76124;BME280;65173;48.066;20.976;2023-05-10T00:11:15;100814.97;;;8.45;70.39
76124;BME280;65173;48.066;20.976;2023-05-10T00:14:18;100817.06;;;8.48;70.05
76124;BME280;65173;48.066;20.976;2023-05-10T00:17:21;100807.44;;;8.52;69.79
76124;BME280;65173;48.066;20.976;2023-05-10T00:20:24;100813.84;;;8.51;69.80
76124;BME280;65173;48.066;20.976;2023-05-10T00:23:27;100814.41;;;8.48;69.70
76124;BME280;65173;48.066;20.976;2023-05-10T00:26:30;100812.31;;;8.64;70.10
76124;BME280;65173;48.066;20.976;2023-05-10T00:29:33;100813.84;;;8.70;69.38
76124;BME280;65173;48.066;20.976;2023-05-10T00:32:36;100815.94;;;8.73;68.77
76124;BME280;65173;48.066;20.976;2023-05-10T00:35:39;100809.53;;;8.74;68.67
76124;BME280;65173;48.066;20.976;2023-05-10T00:38:43;100804.72;;;8.76;70.17
76124;BME280;65173;48.066;20.976;2023-05-10T00:41:46;100803.84;;;8.81;69.56
76124;BME280;65173;48.066;20.976;2023-05-10T00:44:50;100805.66;;;8.85;69.38
76124;BME280;65173;48.066;20.976;2023-05-10T00:47:54;100801.91;;;8.86;69.08
76124;BME280;65173;48.066;20.976;2023-05-10T00:50:58;100797.63;;;8.90;68.09
76124;BME280;65173;48.066;20.976;2023-05-10T00:54:01;100801.34;;;8.89;69.28
76124;BME280;65173;48.066;20.976;2023-05-10T00:57:04;100796.53;;;8.91;68.76
76124;BME280;65173;48.066;20.976;2023-05-10T01:00:08;100792.72;;;8.97;68.28
76124;BME280;65173;48.066;20.976;2023-05-10T01:03:10;100800.03;;;9.05;68.53
76124;BME280;65173;48.066;20.976;2023-05-10T01:06:14;100798.59;;;9.13;67.55
76124;BME280;65173;48.066;20.976;2023-05-10T01:09:16;100791.34;;;9.00;68.52
76124;BME280;65173;48.066;20.976;2023-05-10T01:12:20;100787.38;;;8.97;68.88
76124;BME280;65173;48.066;20.976;2023-05-10T01:15:23;100791.50;;;8.90;69.10
76124;BME280;65173;48.066;20.976;2023-05-10T01:18:27;100786.31;;;8.98;69.14
76124;BME280;65173;48.066;20.976;2023-05-10T01:21:43;100785.34;;;8.94;68.62
76124;BME280;65173;48.066;20.976;2023-05-10T01:35:03;100783.16;;;8.96;67.80
76124;BME280;65173;48.066;20.976;2023-05-10T01:41:30;100778.34;;;8.98;68.05
76124;BME280;65173;48.066;20.976;2023-05-10T01:48:09;100782.53;;;8.86;68.52
76124;BME280;65173;48.066;20.976;2023-05-10T01:51:17;100782.31;;;8.63;71.19
76124;BME280;65173;48.066;20.976;2023-05-10T01:54:23;100788.78;;;8.57;70.39
76124;BME280;65173;48.066;20.976;2023-05-10T01:57:32;100791.28;;;8.49;71.67
76124;BME280;65173;48.066;20.976;2023-05-10T02:00:35;100785.31;;;8.38;71.02
76124;BME280;65173;48.066;20.976;2023-05-10T02:03:42;100779.44;;;8.17;72.14
76124;BME280;65173;48.066;20.976;2023-05-10T02:06:46;100783.84;;;8.03;72.11
76124;BME280;65173;48.066;20.976;2023-05-10T02:09:50;100778.97;;;8.10;71.80
76124;BME280;65173;48.066;20.976;2023-05-10T02:12:54;100783.34;;;8.01;72.55
76124;BME280;65173;48.066;20.976;2023-05-10T02:15:59;100774.50;;;7.87;72.58
76124;BME280;65173;48.066;20.976;2023-05-10T02:19:03;100785.44;;;7.80;73.69
76124;BME280;65173;48.066;20.976;2023-05-10T02:22:07;100786.59;;;7.93;72.60
76124;BME280;65173;48.066;20.976;2023-05-10T02:25:13;100789.91;;;7.85;72.20
76124;BME280;65173;48.066;20.976;2023-05-10T02:28:16;100789.66;;;7.81;71.78
76124;BME280;65173;48.066;20.976;2023-05-10T02:31:20;100781.34;;;7.64;72.84
76124;BME280;65173;48.066;20.976;2023-05-10T02:34:26;100781.78;;;7.47;73.89
76124;BME280;65173;48.066;20.976;2023-05-10T02:37:30;100784.38;;;7.52;73.12
76124;BME280;65173;48.066;20.976;2023-05-10T02:40:35;100783.94;;;7.40;73.48
76124;BME280;65173;48.066;20.976;2023-05-10T02:43:39;100782.50;;;7.24;75.20
76124;BME280;65173;48.066;20.976;2023-05-10T02:46:43;100777.81;;;7.16;75.17
76124;BME280;65173;48.066;20.976;2023-05-10T02:49:47;100774.91;;;7.12;75.24
76124;BME280;65173;48.066;20.976;2023-05-10T02:52:51;100782.19;;;6.96;74.88
76124;BME280;65173;48.066;20.976;2023-05-10T02:55:57;100775.22;;;7.06;74.80
76124;BME280;65173;48.066;20.976;2023-05-10T02:59:01;100776.91;;;6.96;75.25
76124;BME280;65173;48.066;20.976;2023-05-10T03:02:04;100780.53;;;7.06;74.11
76124;BME280;65173;48.066;20.976;2023-05-10T03:05:07;100785.25;;;7.14;73.51
76124;BME280;65173;48.066;20.976;2023-05-10T03:08:10;100780.91;;;7.23;73.88
76124;BME280;65173;48.066;20.976;2023-05-10T03:15:04;100776.38;;;7.28;72.46
76124;BME280;65173;48.066;20.976;2023-05-10T03:18:20;100777.41;;;7.32;73.43
76124;BME280;65173;48.066;20.976;2023-05-10T03:21:25;100786.94;;;7.34;72.76
76124;BME280;65173;48.066;20.976;2023-05-10T03:24:33;100780.53;;;7.35;72.74
76124;BME280;65173;48.066;20.976;2023-05-10T03:27:39;100775.81;;;7.31;72.65
76124;BME280;65173;48.066;20.976;2023-05-10T03:30:43;100776.41;;;7.23;73.50
76124;BME280;65173;48.066;20.976;2023-05-10T03:33:49;100778.41;;;7.37;72.89
76124;BME280;65173;48.066;20.976;2023-05-10T03:36:57;100776.63;;;7.32;73.57
76124;BME280;65173;48.066;20.976;2023-05-10T03:40:03;100786.59;;;7.40;72.61
76124;BME280;65173;48.066;20.976;2023-05-10T03:43:09;100785.72;;;7.50;72.36
76124;BME280;65173;48.066;20.976;2023-05-10T03:46:11;100780.03;;;7.61;71.58
76124;BME280;65173;48.066;20.976;2023-05-10T03:49:14;100782.69;;;7.61;72.07
76124;BME280;65173;48.066;20.976;2023-05-10T03:52:17;100781.69;;;7.81;71.39
76124;BME280;65173;48.066;20.976;2023-05-10T03:55:20;100779.31;;;7.80;71.94
76124;BME280;65173;48.066;20.976;2023-05-10T03:58:25;100775.16;;;7.97;71.11
76124;BME280;65173;48.066;20.976;2023-05-10T04:01:28;100781.84;;;7.90;71.71
76124;BME280;65173;48.066;20.976;2023-05-10T04:04:30;100780.47;;;7.97;71.17
76124;BME280;65173;48.066;20.976;2023-05-10T04:07:33;100781.75;;;8.00;70.52
76124;BME280;65173;48.066;20.976;2023-05-10T04:10:36;100773.28;;;7.98;70.92
76124;BME280;65173;48.066;20.976;2023-05-10T04:13:39;100774.03;;;8.04;70.92
76124;BME280;65173;48.066;20.976;2023-05-10T04:16:41;100775.81;;;8.08;71.11
76124;BME280;65173;48.066;20.976;2023-05-10T04:19:44;100780.84;;;8.10;70.72
76124;BME280;65173;48.066;20.976;2023-05-10T04:22:47;100781.13;;;8.08;71.40
76124;BME280;65173;48.066;20.976;2023-05-10T04:25:50;100782.31;;;8.21;71.49
76124;BME280;65173;48.066;20.976;2023-05-10T04:28:53;100785.53;;;8.18;71.72
76124;BME280;65173;48.066;20.976;2023-05-10T04:31:55;100784.88;;;8.26;70.82
76124;BME280;65173;48.066;20.976;2023-05-10T04:34:58;100784.25;;;8.39;71.02
76124;BME280;65173;48.066;20.976;2023-05-10T04:38:01;100783.88;;;8.46;70.89
76124;BME280;65173;48.066;20.976;2023-05-10T04:41:08;100787.00;;;8.72;69.70
76124;BME280;65173;48.066;20.976;2023-05-10T04:44:11;100795.88;;;8.99;68.31
76124;BME280;65173;48.066;20.976;2023-05-10T04:47:14;100787.56;;;9.20;68.65
76124;BME280;65173;48.066;20.976;2023-05-10T04:50:17;100788.94;;;9.50;67.59
76124;BME280;65173;48.066;20.976;2023-05-10T04:53:20;100791.16;;;9.75;67.14
76124;BME280;65173;48.066;20.976;2023-05-10T04:56:23;100785.03;;;9.74;65.86
76124;BME280;65173;48.066;20.976;2023-05-10T04:59:25;100774.88;;;10.04;65.70
76124;BME280;65173;48.066;20.976;2023-05-10T05:02:28;100783.19;;;10.16;66.36
76124;BME280;65173;48.066;20.976;2023-05-10T05:05:31;100781.50;;;10.34;66.01
76124;BME280;65173;48.066;20.976;2023-05-10T05:08:34;100782.66;;;10.41;64.57
76124;BME280;65173;48.066;20.976;2023-05-10T05:11:36;100781.88;;;10.41;63.87
76124;BME280;65173;48.066;20.976;2023-05-10T05:14:40;100789.28;;;10.44;64.58
76124;BME280;65173;48.066;20.976;2023-05-10T05:17:43;100779.09;;;10.82;63.87
76124;BME280;65173;48.066;20.976;2023-05-10T05:20:46;100783.28;;;10.97;63.19
76124;BME280;65173;48.066;20.976;2023-05-10T05:23:49;100788.34;;;11.21;63.20
76124;BME280;65173;48.066;20.976;2023-05-10T05:26:51;100790.47;;;11.10;61.83
76124;BME280;65173;48.066;20.976;2023-05-10T05:29:54;100792.50;;;11.35;61.33
76124;BME280;65173;48.066;20.976;2023-05-10T05:32:57;100791.13;;;11.16;62.13
76124;BME280;65173;48.066;20.976;2023-05-10T05:36:01;100794.44;;;10.99;61.73
76124;BME280;65173;48.066;20.976;2023-05-10T05:39:04;100798.41;;;11.24;62.25
76124;BME280;65173;48.066;20.976;2023-05-10T05:42:07;100801.28;;;11.58;61.02
76124;BME280;65173;48.066;20.976;2023-05-10T05:45:10;100815.25;;;11.86;59.67
76124;BME280;65173;48.066;20.976;2023-05-10T05:48:15;100812.94;;;11.71;61.12
76124;BME280;65173;48.066;20.976;2023-05-10T05:51:18;100803.75;;;11.55;60.29
76124;BME280;65173;48.066;20.976;2023-05-10T05:54:20;100810.50;;;11.83;61.90
76124;BME280;65173;48.066;20.976;2023-05-10T05:57:23;100819.09;;;12.02;61.88
76124;BME280;65173;48.066;20.976;2023-05-10T06:00:26;100820.34;;;11.21;62.88
76124;BME280;65173;48.066;20.976;2023-05-10T06:03:29;100816.34;;;11.32;62.73
76124;BME280;65173;48.066;20.976;2023-05-10T06:06:32;100803.63;;;12.39;59.91
76124;BME280;65173;48.066;20.976;2023-05-10T06:09:34;100816.75;;;13.27;59.44
76124;BME280;65173;48.066;20.976;2023-05-10T06:12:37;100814.75;;;13.70;55.77
76124;BME280;65173;48.066;20.976;2023-05-10T06:15:40;100809.72;;;14.07;56.30
76124;BME280;65173;48.066;20.976;2023-05-10T06:18:42;100818.16;;;14.26;57.65
76124;BME280;65173;48.066;20.976;2023-05-10T06:21:45;100813.84;;;14.63;54.86
76124;BME280;65173;48.066;20.976;2023-05-10T06:24:47;100813.97;;;14.08;55.50
76124;BME280;65173;48.066;20.976;2023-05-10T06:27:50;100809.69;;;14.45;55.90
76124;BME280;65173;48.066;20.976;2023-05-10T06:30:55;100813.34;;;14.11;54.96
76124;BME280;65173;48.066;20.976;2023-05-10T06:33:57;100812.47;;;14.99;55.97
76124;BME280;65173;48.066;20.976;2023-05-10T06:37:00;100813.75;;;15.13;55.99
76124;BME280;65173;48.066;20.976;2023-05-10T06:40:03;100817.75;;;15.85;50.13
76124;BME280;65173;48.066;20.976;2023-05-10T06:43:06;100823.47;;;16.20;50.07
76124;BME280;65173;48.066;20.976;2023-05-10T06:46:09;100828.59;;;16.74;49.41
76124;BME280;65173;48.066;20.976;2023-05-10T06:49:12;100828.41;;;16.95;48.36
76124;BME280;65173;48.066;20.976;2023-05-10T06:52:15;100822.88;;;17.31;47.86
76124;BME280;65173;48.066;20.976;2023-05-10T06:55:37;100815.91;;;17.90;47.49
76124;BME280;65173;48.066;20.976;2023-05-10T06:58:40;100826.56;;;18.33;46.06
76124;BME280;65173;48.066;20.976;2023-05-10T07:01:43;100820.03;;;18.34;46.15
76124;BME280;65173;48.066;20.976;2023-05-10T07:04:47;100827.34;;;18.34;48.08
76124;BME280;65173;48.066;20.976;2023-05-10T07:07:49;100828.84;;;16.97;48.89
76124;BME280;65173;48.066;20.976;2023-05-10T07:10:52;100821.34;;;14.70;55.12
76124;BME280;65173;48.066;20.976;2023-05-10T07:13:55;100819.22;;;14.84;56.56
76124;BME280;65173;48.066;20.976;2023-05-10T07:16:58;100819.00;;;14.39;57.94
76124;BME280;65173;48.066;20.976;2023-05-10T07:20:01;100827.13;;;14.59;57.85
76124;BME280;65173;48.066;20.976;2023-05-10T07:23:03;100819.31;;;14.87;56.64
76124;BME280;65173;48.066;20.976;2023-05-10T07:26:06;100823.19;;;14.78;56.17
76124;BME280;65173;48.066;20.976;2023-05-10T07:29:09;100821.53;;;15.06;55.75
76124;BME280;65173;48.066;20.976;2023-05-10T07:32:12;100820.44;;;15.85;53.05
76124;BME280;65173;48.066;20.976;2023-05-10T07:35:15;100825.03;;;16.21;55.21
76124;BME280;65173;48.066;20.976;2023-05-10T07:38:18;100814.50;;;17.64;50.70
76124;BME280;65173;48.066;20.976;2023-05-10T07:41:20;100818.06;;;19.05;47.10
76124;BME280;65173;48.066;20.976;2023-05-10T07:44:24;100821.66;;;19.51;45.73
76124;BME280;65173;48.066;20.976;2023-05-10T07:47:26;100826.09;;;17.81;47.42
76124;BME280;65173;48.066;20.976;2023-05-10T07:50:29;100834.66;;;17.55;48.70
76124;BME280;65173;48.066;20.976;2023-05-10T07:53:31;100831.53;;;16.32;51.38
76124;BME280;65173;48.066;20.976;2023-05-10T07:56:34;100825.94;;;16.90;50.80
76124;BME280;65173;48.066;20.976;2023-05-10T07:59:37;100823.72;;;16.92;53.37
76124;BME280;65173;48.066;20.976;2023-05-10T08:02:40;100832.63;;;16.56;52.05
76124;BME280;65173;48.066;20.976;2023-05-10T08:05:43;100822.25;;;17.66;50.61
76124;BME280;65173;48.066;20.976;2023-05-10T08:08:46;100824.31;;;18.55;49.67
76124;BME280;65173;48.066;20.976;2023-05-10T08:11:51;100829.28;;;19.07;46.67
76124;BME280;65173;48.066;20.976;2023-05-10T08:14:54;100823.78;;;18.30;49.84
76124;BME280;65173;48.066;20.976;2023-05-10T08:17:56;100820.78;;;18.00;48.46
76124;BME280;65173;48.066;20.976;2023-05-10T08:20:59;100829.88;;;18.27;48.62
76124;BME280;65173;48.066;20.976;2023-05-10T08:24:01;100823.19;;;18.21;47.72
76124;BME280;65173;48.066;20.976;2023-05-10T08:27:05;100826.66;;;18.91;48.09
76124;BME280;65173;48.066;20.976;2023-05-10T08:30:08;100825.69;;;19.61;46.46
76124;BME280;65173;48.066;20.976;2023-05-10T08:33:11;100828.31;;;18.26;48.89
76124;BME280;65173;48.066;20.976;2023-05-10T08:36:13;100822.25;;;17.66;49.45
76124;BME280;65173;48.066;20.976;2023-05-10T08:39:22;100827.22;;;18.46;48.59
76124;BME280;65173;48.066;20.976;2023-05-10T08:42:34;100817.53;;;19.19;46.24
76124;BME280;65173;48.066;20.976;2023-05-10T08:45:42;100818.94;;;18.04;51.48
76124;BME280;65173;48.066;20.976;2023-05-10T08:48:45;100824.94;;;17.82;49.92
76124;BME280;65173;48.066;20.976;2023-05-10T08:51:51;100828.13;;;17.12;51.84
76124;BME280;65173;48.066;20.976;2023-05-10T08:54:57;100828.13;;;17.12;53.76
76124;BME280;65173;48.066;20.976;2023-05-10T08:58:00;100819.63;;;19.06;49.46
76124;BME280;65173;48.066;20.976;2023-05-10T09:01:04;100819.28;;;18.88;47.62
76124;BME280;65173;48.066;20.976;2023-05-10T09:04:07;100825.56;;;16.76;54.39
76124;BME280;65173;48.066;20.976;2023-05-10T09:07:10;100813.47;;;17.25;54.17
76124;BME280;65173;48.066;20.976;2023-05-10T09:10:13;100821.38;;;17.78;54.99
76124;BME280;65173;48.066;20.976;2023-05-10T09:13:17;100830.78;;;17.68;52.55
76124;BME280;65173;48.066;20.976;2023-05-10T09:16:19;100824.31;;;16.73;55.52
76124;BME280;65173;48.066;20.976;2023-05-10T09:19:23;100830.94;;;15.78;58.55
76124;BME280;65173;48.066;20.976;2023-05-10T09:22:26;100824.00;;;15.77;60.14
76124;BME280;65173;48.066;20.976;2023-05-10T09:25:29;100824.19;;;15.27;60.67
76124;BME280;65173;48.066;20.976;2023-05-10T09:31:53;100819.66;;;15.85;58.88
76124;BME280;65173;48.066;20.976;2023-05-10T09:35:06;100825.91;;;15.32;59.67
76124;BME280;65173;48.066;20.976;2023-05-10T09:38:08;100822.09;;;15.00;59.11
76124;BME280;65173;48.066;20.976;2023-05-10T09:41:20;100822.00;;;14.87;60.27
76124;BME280;65173;48.066;20.976;2023-05-10T09:44:25;100812.25;;;15.04;59.70
76124;BME280;65173;48.066;20.976;2023-05-10T09:47:28;100811.69;;;15.43;58.83
76124;BME280;65173;48.066;20.976;2023-05-10T09:50:31;100807.09;;;15.32;59.42
76124;BME280;65173;48.066;20.976;2023-05-10T09:53:34;100813.44;;;15.60;58.83
76124;BME280;65173;48.066;20.976;2023-05-10T09:56:37;100812.03;;;15.99;57.63
76124;BME280;65173;48.066;20.976;2023-05-10T09:59:43;100802.66;;;15.93;57.35
76124;BME280;65173;48.066;20.976;2023-05-10T10:02:56;100803.19;;;15.86;57.64
76124;BME280;65173;48.066;20.976;2023-05-10T10:05:59;100796.69;;;15.87;56.94
76124;BME280;65173;48.066;20.976;2023-05-10T10:09:02;100793.94;;;16.60;56.00
76124;BME280;65173;48.066;20.976;2023-05-10T10:12:05;100785.94;;;17.04;54.13
76124;BME280;65173;48.066;20.976;2023-05-10T10:15:08;100786.03;;;17.35;54.16
76124;BME280;65173;48.066;20.976;2023-05-10T10:18:14;100782.03;;;17.61;53.04
76124;BME280;65173;48.066;20.976;2023-05-10T10:21:19;100777.09;;;17.79;49.37
76124;BME280;65173;48.066;20.976;2023-05-10T10:24:22;100777.22;;;18.17;49.40
76124;BME280;65173;48.066;20.976;2023-05-10T10:27:35;100773.38;;;20.29;45.52
76124;BME280;65173;48.066;20.976;2023-05-10T10:30:46;100772.53;;;20.25;41.65
76124;BME280;65173;48.066;20.976;2023-05-10T10:34:03;100761.75;;;19.98;43.97
76124;BME280;65173;48.066;20.976;2023-05-10T10:37:07;100759.81;;;21.22;41.92
76124;BME280;65173;48.066;20.976;2023-05-10T10:43:28;100758.84;;;21.41;40.78
76124;BME280;65173;48.066;20.976;2023-05-10T10:46:31;100754.84;;;21.28;39.01
76124;BME280;65173;48.066;20.976;2023-05-10T10:52:43;100744.69;;;22.24;37.74
76124;BME280;65173;48.066;20.976;2023-05-10T10:55:47;100738.06;;;21.19;40.45
76124;BME280;65173;48.066;20.976;2023-05-10T10:58:50;100740.56;;;22.58;37.89
76124;BME280;65173;48.066;20.976;2023-05-10T11:01:54;100729.91;;;23.40;37.54
76124;BME280;65173;48.066;20.976;2023-05-10T11:04:56;100730.28;;;23.45;41.09
76124;BME280;65173;48.066;20.976;2023-05-10T11:08:00;100732.47;;;21.93;37.41
76124;BME280;65173;48.066;20.976;2023-05-10T11:11:05;100724.50;;;21.59;37.18
76124;BME280;65173;48.066;20.976;2023-05-10T11:14:11;100722.75;;;22.57;36.39
76124;BME280;65173;48.066;20.976;2023-05-10T11:17:24;100716.94;;;24.18;34.48
76124;BME280;65173;48.066;20.976;2023-05-10T11:20:28;100717.44;;;23.00;34.33
76124;BME280;65173;48.066;20.976;2023-05-10T11:23:52;100717.78;;;21.97;35.00
76124;BME280;65173;48.066;20.976;2023-05-10T11:30:01;100712.97;;;21.25;35.45
76124;BME280;65173;48.066;20.976;2023-05-10T11:33:09;100711.03;;;21.22;36.83
76124;BME280;65173;48.066;20.976;2023-05-10T11:36:17;100701.94;;;23.29;32.65
76124;BME280;65173;48.066;20.976;2023-05-10T11:39:21;100695.69;;;23.71;32.42
76124;BME280;65173;48.066;20.976;2023-05-10T11:42:23;100699.97;;;23.72;33.27
76124;BME280;65173;48.066;20.976;2023-05-10T11:45:27;100692.88;;;22.71;34.00
76124;BME280;65173;48.066;20.976;2023-05-10T11:48:31;100689.66;;;22.41;32.82
76124;BME280;65173;48.066;20.976;2023-05-10T11:51:35;100691.63;;;21.71;33.17
76124;BME280;65173;48.066;20.976;2023-05-10T11:54:51;100679.59;;;21.65;35.87
76124;BME280;65173;48.066;20.976;2023-05-10T11:57:54;100691.31;;;22.67;33.54
76124;BME280;65173;48.066;20.976;2023-05-10T12:00:58;100695.88;;;22.41;33.98
76124;BME280;65173;48.066;20.976;2023-05-10T12:04:01;100688.56;;;22.52;33.47
76124;BME280;65173;48.066;20.976;2023-05-10T12:07:04;100685.91;;;21.87;36.63
76124;BME280;65173;48.066;20.976;2023-05-10T12:10:10;100689.69;;;24.33;32.32
76124;BME280;65173;48.066;20.976;2023-05-10T12:13:18;100689.41;;;23.84;31.88
76124;BME280;65173;48.066;20.976;2023-05-10T12:16:28;100675.84;;;22.81;33.30
76124;BME280;65173;48.066;20.976;2023-05-10T12:19:37;100683.78;;;22.17;35.02
76124;BME280;65173;48.066;20.976;2023-05-10T12:22:43;100684.63;;;21.19;35.77
76124;BME280;65173;48.066;20.976;2023-05-10T12:25:46;100681.03;;;21.48;37.54
76124;BME280;65173;48.066;20.976;2023-05-10T12:28:49;100671.44;;;21.18;35.00
76124;BME280;65173;48.066;20.976;2023-05-10T12:31:56;100683.09;;;20.44;35.19
76124;BME280;65173;48.066;20.976;2023-05-10T12:34:59;100674.31;;;19.94;35.57
76124;BME280;65173;48.066;20.976;2023-05-10T12:38:28;100666.75;;;20.07;36.65
76124;BME280;65173;48.066;20.976;2023-05-10T12:41:33;100659.66;;;19.95;37.49
76124;BME280;65173;48.066;20.976;2023-05-10T12:44:35;100660.56;;;19.76;37.02
76124;BME280;65173;48.066;20.976;2023-05-10T12:47:38;100661.56;;;20.25;37.02
76124;BME280;65173;48.066;20.976;2023-05-10T12:50:44;100642.44;;;20.10;36.15
76124;BME280;65173;48.066;20.976;2023-05-10T12:53:47;100647.97;;;19.88;35.86
76124;BME280;65173;48.066;20.976;2023-05-10T12:56:50;100641.66;;;19.80;36.23
76124;BME280;65173;48.066;20.976;2023-05-10T12:59:54;100634.38;;;19.84;36.11
76124;BME280;65173;48.066;20.976;2023-05-10T13:02:56;100629.84;;;20.25;37.50
76124;BME280;65173;48.066;20.976;2023-05-10T13:05:59;100626.34;;;20.21;36.97
76124;BME280;65173;48.066;20.976;2023-05-10T13:09:03;100629.06;;;19.91;36.64
76124;BME280;65173;48.066;20.976;2023-05-10T13:12:06;100629.00;;;19.58;38.59
76124;BME280;65173;48.066;20.976;2023-05-10T13:15:11;100617.31;;;20.10;39.44
76124;BME280;65173;48.066;20.976;2023-05-10T13:18:14;100622.50;;;20.26;38.00
76124;BME280;65173;48.066;20.976;2023-05-10T13:21:16;100612.50;;;19.66;40.76
76124;BME280;65173;48.066;20.976;2023-05-10T13:24:19;100612.09;;;19.64;39.08
76124;BME280;65173;48.066;20.976;2023-05-10T13:27:21;100605.78;;;19.57;37.46
76124;BME280;65173;48.066;20.976;2023-05-10T13:30:24;100614.34;;;19.89;37.29
76124;BME280;65173;48.066;20.976;2023-05-10T13:33:27;100602.41;;;20.27;37.44
76124;BME280;65173;48.066;20.976;2023-05-10T13:36:30;100601.31;;;20.68;36.82
76124;BME280;65173;48.066;20.976;2023-05-10T13:39:33;100601.13;;;21.39;37.08
76124;BME280;65173;48.066;20.976;2023-05-10T13:42:36;100604.56;;;21.29;36.48
76124;BME280;65173;48.066;20.976;2023-05-10T13:45:39;100596.03;;;21.27;38.35
76124;BME280;65173;48.066;20.976;2023-05-10T13:48:42;100589.28;;;21.10;36.52
76124;BME280;65173;48.066;20.976;2023-05-10T13:51:44;100591.34;;;20.79;34.86
76124;BME280;65173;48.066;20.976;2023-05-10T13:54:47;100586.59;;;20.29;38.50
76124;BME280;65173;48.066;20.976;2023-05-10T13:57:50;100575.94;;;20.43;37.26
76124;BME280;65173;48.066;20.976;2023-05-10T14:00:53;100581.34;;;20.43;35.84
76124;BME280;65173;48.066;20.976;2023-05-10T14:03:55;100583.13;;;20.32;37.76
76124;BME280;65173;48.066;20.976;2023-05-10T14:06:58;100580.00;;;19.93;38.47
76124;BME280;65173;48.066;20.976;2023-05-10T14:10:00;100583.09;;;19.95;37.57
76124;BME280;65173;48.066;20.976;2023-05-10T14:13:03;100571.22;;;20.77;37.26
76124;BME280;65173;48.066;20.976;2023-05-10T14:16:06;100567.91;;;21.01;36.31
76124;BME280;65173;48.066;20.976;2023-05-10T14:19:09;100559.75;;;21.53;34.76
76124;BME280;65173;48.066;20.976;2023-05-10T14:22:11;100566.31;;;21.52;33.57
76124;BME280;65173;48.066;20.976;2023-05-10T14:25:14;100562.56;;;20.61;37.93
76124;BME280;65173;48.066;20.976;2023-05-10T14:28:17;100563.31;;;21.05;35.97
76124;BME280;65173;48.066;20.976;2023-05-10T14:31:21;100559.69;;;21.38;36.66
76124;BME280;65173;48.066;20.976;2023-05-10T14:34:23;100553.94;;;21.54;36.56
76124;BME280;65173;48.066;20.976;2023-05-10T14:37:26;100555.25;;;21.12;36.73
76124;BME280;65173;48.066;20.976;2023-05-10T14:40:29;100557.75;;;21.39;36.14
76124;BME280;65173;48.066;20.976;2023-05-10T14:43:32;100552.88;;;21.76;34.64
76124;BME280;65173;48.066;20.976;2023-05-10T14:46:35;100555.53;;;21.00;33.79
76124;BME280;65173;48.066;20.976;2023-05-10T14:49:38;100546.59;;;20.96;33.22
76124;BME280;65173;48.066;20.976;2023-05-10T14:52:41;100544.69;;;21.00;33.32
76124;BME280;65173;48.066;20.976;2023-05-10T14:55:44;100547.81;;;20.55;35.05
76124;BME280;65173;48.066;20.976;2023-05-10T14:58:46;100540.50;;;20.59;33.54
76124;BME280;65173;48.066;20.976;2023-05-10T15:01:49;100550.06;;;20.97;33.70
76124;BME280;65173;48.066;20.976;2023-05-10T15:04:52;100539.72;;;21.09;32.56
76124;BME280;65173;48.066;20.976;2023-05-10T15:08:00;100540.84;;;20.54;35.05
76124;BME280;65173;48.066;20.976;2023-05-10T15:11:02;100538.25;;;20.31;32.31
76124;BME280;65173;48.066;20.976;2023-05-10T15:14:05;100530.28;;;20.04;35.62
76124;BME280;65173;48.066;20.976;2023-05-10T15:17:08;100535.75;;;20.49;34.78
76124;BME280;65173;48.066;20.976;2023-05-10T15:20:11;100540.09;;;20.20;32.24
76124;BME280;65173;48.066;20.976;2023-05-10T15:23:13;100530.78;;;20.54;32.93
76124;BME280;65173;48.066;20.976;2023-05-10T15:26:16;100530.84;;;20.21;32.63
76124;BME280;65173;48.066;20.976;2023-05-10T15:29:19;100529.50;;;20.04;32.91
76124;BME280;65173;48.066;20.976;2023-05-10T15:32:22;100522.22;;;20.11;33.48
76124;BME280;65173;48.066;20.976;2023-05-10T15:35:25;100520.84;;;19.91;33.62
76124;BME280;65173;48.066;20.976;2023-05-10T15:38:28;100526.41;;;19.72;32.80
76124;BME280;65173;48.066;20.976;2023-05-10T15:41:31;100526.09;;;19.47;33.02
76124;BME280;65173;48.066;20.976;2023-05-10T15:44:34;100527.91;;;19.39;33.33
76124;BME280;65173;48.066;20.976;2023-05-10T15:47:37;100514.22;;;19.52;32.45
76124;BME280;65173;48.066;20.976;2023-05-10T15:50:42;100519.22;;;19.53;33.89
76124;BME280;65173;48.066;20.976;2023-05-10T15:53:45;100520.00;;;19.54;32.97
76124;BME280;65173;48.066;20.976;2023-05-10T15:57:07;100517.91;;;19.14;32.80
76124;BME280;65173;48.066;20.976;2023-05-10T16:00:11;100526.16;;;19.24;34.05
76124;BME280;65173;48.066;20.976;2023-05-10T16:03:14;100514.28;;;19.59;34.99
76124;BME280;65173;48.066;20.976;2023-05-10T16:06:17;100526.03;;;19.70;33.94
76124;BME280;65173;48.066;20.976;2023-05-10T16:09:20;100518.34;;;19.75;33.60
76124;BME280;65173;48.066;20.976;2023-05-10T16:12:23;100513.81;;;19.83;33.12
76124;BME280;65173;48.066;20.976;2023-05-10T16:15:26;100511.94;;;19.91;34.14
76124;BME280;65173;48.066;20.976;2023-05-10T16:18:28;100512.31;;;19.89;35.65
76124;BME280;65173;48.066;20.976;2023-05-10T16:21:32;100513.81;;;19.83;34.42
76124;BME280;65173;48.066;20.976;2023-05-10T16:24:34;100512.41;;;19.63;34.94
76124;BME280;65173;48.066;20.976;2023-05-10T16:27:38;100513.19;;;19.63;34.97